SBYS

Campo Fontenelle Airport

Pirassununga, Brazil
TAF SBYS 201600Z 2018/2106 13008KT 9999 FEW037 FEW043TCU TX32/2018ZTN21/2105Z PROB40 2018/2020 7000 TSRA SCT043 FEW047CBFM202000 13005KT 9999 VCTS FEW037 FEW047CBFM202200 31005KT 9999 NSW FEW037 BECMG 2101/2103 CAVOK RMK PEW
Issued Valid From Valid To
Jan-20 @ 16:00 UTC
(5 hours ago)
Jan-20 @ 18:00 UTC
(3 hours ago)
Jan-21 @ 06:00 UTC
(in 9 hours)
Expired Click to View Jan-20 @ 18:00 to Jan-20 @ 20:00
TAF SBYS 201600Z 2018/2106 13008KT 9999 FEW037 FEW043TCU TX32/2018ZTN21/2105Z
Wind Visibility Clouds
130° at 8 knots 10,000+ meters
  • Few at 3,700' AGL
  • Few at 4,300' AGL
Expired Click to View Jan-20 @ 18:00 to Jan-20 @ 20:00
PROB40 2018/2020 7000 TSRA SCT043 FEW047CBFM202000 13005KT 9999 VCTS FEW037 FEW047CBFM202200 31005KT 9999 NSW FEW037
Visibility Clouds Conditions
7,001 meters
  • Scattered at 4,300' AGL
  • Few at 4,700' AGL
  • Thunderstorm
  • Rain
From Jan-20 @ 20:00 to Jan-20 @ 22:00
Wind Visibility Clouds Conditions
130° at 5 knots 10,000+ meters
  • Few at 3,700' AGL
  • Few at 4,700' AGL
  • Area Thunderstorm
From Jan-20 @ 22:00 to Jan-21 @ 01:00
Wind Visibility Clouds Conditions
310° at 5 knots 10,000+ meters
  • Few at 3,700' AGL
Becoming Jan-21 @ 01:00 to Jan-21 @ 06:00
BECMG 2101/2103 CAVOK RMK PEW
Wind Visibility Clouds Conditions
310° at 5 knots 10,000+ meters
  • No significant clouds
TAF SBYS 201600Z 2018/2106 13008KT 9999 FEW037 FEW043TCU TX32/2018ZTN21/2105Z PROB40 2018/2020 7000 TSRA SCT043 FEW047CBFM202000 13005KT 9999 VCTS FEW037 FEW047CBFM202200 31005KT 9999 NSW FEW037 BECMG 2101/2103 CAVOK RMK PEW
Issued Jan-20 @ 16:00 UTC
(5 hours ago)
Valid From Jan-20 @ 18:00 UTC
(3 hours ago)
Valid To Jan-21 @ 06:00 UTC
(in 9 hours)
Jan-20 @ 18:00 - Jan-20 @ 20:00
Wind Visibility
130° at 8 knots 10,000+ meters
Clouds
  • Few at 3,700' AGL
  • Few at 4,300' AGL
Jan-20 @ 18:00 - Jan-20 @ 20:00
Clouds
  • Scattered at 4,300' AGL
  • Few at 4,700' AGL
Conditions
  • Thunderstorm
  • Rain
From Jan-20 @ 20:00 - Jan-20 @ 22:00
Wind Visibility
130° at 5 knots 10,000+ meters
Clouds
  • Few at 3,700' AGL
  • Few at 4,700' AGL
Conditions
  • Area Thunderstorm
From Jan-20 @ 22:00 - Jan-21 @ 01:00
Wind Visibility
310° at 5 knots 10,000+ meters
Clouds
  • Few at 3,700' AGL
Conditions
Becoming Jan-21 @ 01:00 - Jan-21 @ 06:00
Wind Visibility
310° at 5 knots 10,000+ meters
Clouds
  • No significant clouds
Conditions